Decoded Metar for LEGR (GRANADA in SPAIN) (IATA:GRX) | Meteo·Mobile Aviation Weather
aviador You're here:

LEGR Decoded Metar

GRANADA in SPAIN
Report Time2019-10-19 22:30:00
UTC Time2019-10-19 22:56:59
Flight Rules vfr VFR
Wind190° at 08 kt
W.Decomp.*RWY 27: 1.5 kt HW 7.9 kt LCW
Visibility9999 m
Phenomena:N/A
Clouds:Few 067 Hf
Expected CloudBase > 2,800 ft AGL from Temp-Dew spread
CeilingNone
Temp19°C (ISA +8)
Dew Point12°C (64% RH)
AAT16.7°C
QNH1011 hPa
Density Alt2,989 ft
Elevation1,834 ft
Report Wrong Elevation
Raw Report
LEGR 192230Z AUTO 19008KT 160V220 9999 FEW067 19/12 Q1011=

Extra information for LEGR:More info

Metar Taf Metar & Taf Last 4 Metars F.Rules Stats Wind Profile Meteogram Temp Stats Airport Information Weather charts Add Link Nearby VenuesMetar ALERT Operation Metar Decoded Social comments